createdAt,value
2023-02-11T00:00:42.066Z,2.00
2023-02-11T00:03:10.554Z,1.58
2023-02-11T00:05:38.768Z,2.17
2023-02-11T00:08:06.980Z,1.65
2023-02-11T00:10:36.606Z,1.45
2023-02-11T00:13:04.810Z,1.38
2023-02-11T00:15:32.967Z,0.95
2023-02-11T00:18:01.038Z,1.35
2023-02-11T00:20:29.244Z,1.00
2023-02-11T00:22:57.351Z,1.00
2023-02-11T00:25:25.509Z,1.10
2023-02-11T00:27:54.930Z,1.38
2023-02-11T00:30:23.178Z,1.45
2023-02-11T00:32:51.366Z,1.13
2023-02-11T00:35:19.614Z,1.23
2023-02-11T00:37:47.703Z,1.25
2023-02-11T00:40:16.833Z,1.00
2023-02-11T00:42:44.962Z,1.10
2023-02-11T00:45:14.694Z,1.25
2023-02-11T00:47:42.836Z,1.52
2023-02-11T00:50:11.119Z,1.45
2023-02-11T00:52:39.218Z,2.17
2023-02-11T00:55:08.113Z,2.03
2023-02-11T00:57:36.243Z,2.80
2023-02-11T01:00:05.555Z,2.63
2023-02-11T01:02:35.413Z,3.03
2023-02-11T01:05:05.407Z,2.65
2023-02-11T01:07:34.043Z,2.83
2023-02-11T01:10:02.253Z,3.42
2023-02-11T01:12:31.316Z,3.63
2023-02-11T01:14:59.866Z,3.25
2023-02-11T01:17:27.926Z,3.08
2023-02-11T01:19:57.406Z,3.10
2023-02-11T01:22:25.582Z,3.15
2023-02-11T01:24:53.757Z,2.50
2023-02-11T01:27:21.899Z,2.78
2023-02-11T01:29:50.044Z,3.50
2023-02-11T01:32:18.138Z,3.42
2023-02-11T01:34:47.448Z,2.97
2023-02-11T01:37:16.948Z,3.42
2023-02-11T01:39:45.122Z,2.38
2023-02-11T01:42:17.027Z,3.05
2023-02-11T01:44:45.457Z,2.58
2023-02-11T01:47:13.569Z,2.53
2023-02-11T01:49:45.281Z,1.80
2023-02-11T01:52:20.146Z,2.40
2023-02-11T01:55:09.883Z,2.00
2023-02-11T01:57:40.687Z,1.65
2023-02-11T02:00:14.206Z,2.22
2023-02-11T02:02:50.116Z,1.83
2023-02-11T02:05:27.190Z,1.70
2023-02-11T02:08:04.681Z,1.63
2023-02-11T02:10:36.636Z,1.33
2023-02-11T02:13:04.957Z,1.40
2023-02-11T02:15:34.733Z,1.23
2023-02-11T02:18:13.955Z,1.48
2023-02-11T02:21:12.764Z,1.42
2023-02-11T02:23:59.082Z,1.20
2023-02-11T02:26:54.103Z,1.10
2023-02-11T02:29:59.374Z,0.93
2023-02-11T02:32:47.751Z,1.20
2023-02-11T02:35:25.788Z,1.20
2023-02-11T02:38:02.591Z,1.70
2023-02-11T02:40:35.668Z,1.30
2023-02-11T02:43:05.581Z,0.73
2023-02-11T02:45:34.632Z,1.10
2023-02-11T02:48:04.351Z,1.13
2023-02-11T02:50:36.175Z,1.30
2023-02-11T02:53:17.455Z,1.05
2023-02-11T02:56:00.143Z,1.20
2023-02-11T02:58:58.958Z,1.00
2023-02-11T03:01:35.953Z,0.90
2023-02-11T03:04:13.407Z,0.73
2023-02-11T03:06:49.668Z,0.93
2023-02-11T03:09:25.185Z,0.57
2023-02-11T03:11:53.725Z,1.30
2023-02-11T03:14:26.763Z,0.73
2023-02-11T03:16:58.724Z,0.88
2023-02-11T03:19:31.756Z,0.80
2023-02-11T03:22:00.943Z,1.00
2023-02-11T03:24:34.206Z,0.73
2023-02-11T03:27:09.517Z,0.80
2023-02-11T03:29:42.226Z,0.50
2023-02-11T03:32:17.195Z,0.57
2023-02-11T03:34:51.403Z,0.98
2023-02-11T03:37:23.413Z,0.77
2023-02-11T03:39:58.439Z,1.10
2023-02-11T03:42:31.306Z,0.63
2023-02-11T03:45:05.199Z,0.70
2023-02-11T03:50:07.716Z,0.50
2023-02-11T03:52:38.212Z,0.68
2023-02-11T03:55:12.325Z,1.13
2023-02-11T03:57:40.685Z,0.80
2023-02-11T04:00:10.284Z,0.52
2023-02-11T04:02:41.357Z,1.10
2023-02-11T04:05:16.060Z,0.75
2023-02-11T04:07:44.335Z,1.20
2023-02-11T04:10:13.255Z,0.70
2023-02-11T04:12:41.385Z,0.85
2023-02-11T04:15:09.826Z,1.02
2023-02-11T04:17:38.264Z,0.82
2023-02-11T04:20:06.838Z,1.00
2023-02-11T04:22:37.665Z,0.60
2023-02-11T04:25:07.236Z,0.77
2023-02-11T04:27:35.377Z,0.65
2023-02-11T04:30:04.096Z,0.65
2023-02-11T04:32:32.311Z,0.85
2023-02-11T04:35:00.550Z,0.80
2023-02-11T04:37:28.946Z,0.93
2023-02-11T04:39:58.511Z,0.80
2023-02-11T04:42:26.618Z,0.40
2023-02-11T04:44:54.750Z,0.60
2023-02-11T04:47:22.881Z,0.80
2023-02-11T04:49:51.037Z,0.90
2023-02-11T04:52:19.216Z,0.40
2023-02-11T04:54:47.328Z,0.90
2023-02-11T04:57:16.835Z,0.60
2023-02-11T04:59:45.180Z,1.38
2023-02-11T05:02:13.241Z,0.80
2023-02-11T05:04:41.381Z,0.45
2023-02-11T05:07:09.457Z,0.70
2023-02-11T05:09:37.778Z,0.20
2023-02-11T05:12:05.982Z,0.85
2023-02-11T05:14:35.731Z,0.47
2023-02-11T05:17:03.860Z,0.98
2023-02-11T05:19:32.447Z,0.82
2023-02-11T05:22:03.397Z,0.75
2023-02-11T05:24:32.528Z,0.90
2023-02-11T05:27:01.128Z,0.98
2023-02-11T05:29:29.546Z,0.88
2023-02-11T05:32:00.164Z,0.60
2023-02-11T05:34:28.438Z,0.82
2023-02-11T05:36:56.684Z,0.60
2023-02-11T05:39:24.845Z,0.65
2023-02-11T05:41:52.924Z,0.70
2023-02-11T05:44:21.363Z,0.63
2023-02-11T05:46:50.319Z,0.38
2023-02-11T05:49:20.885Z,0.52
2023-02-11T05:51:49.074Z,0.70
2023-02-11T05:54:17.948Z,0.57
2023-02-11T05:56:46.043Z,1.00
2023-02-11T05:59:15.955Z,0.30
2023-02-11T06:01:44.125Z,0.60
2023-02-11T06:04:12.310Z,0.45
2023-02-11T06:06:41.705Z,0.65
2023-02-11T06:09:10.874Z,0.50
2023-02-11T06:11:39.012Z,0.30
2023-02-11T06:14:07.913Z,0.88
2023-02-11T06:16:36.045Z,0.40
2023-02-11T06:19:04.224Z,0.30
2023-02-11T06:21:43.258Z,0.60
2023-02-11T06:24:14.227Z,0.43
2023-02-11T06:26:42.435Z,0.32
2023-02-11T06:29:10.758Z,0.70
2023-02-11T06:31:39.915Z,0.70
2023-02-11T06:34:08.446Z,0.63
2023-02-11T06:36:37.096Z,0.38
2023-02-11T06:39:05.697Z,0.70
2023-02-11T06:41:35.144Z,0.50
2023-02-11T06:44:03.325Z,0.47
2023-02-11T06:46:31.533Z,0.63
2023-02-11T06:48:59.720Z,0.60
2023-02-11T06:51:28.441Z,0.80
2023-02-11T06:53:56.576Z,0.40
2023-02-11T06:56:27.418Z,0.20
2023-02-11T06:58:57.931Z,0.60
2023-02-11T07:01:27.815Z,0.52
2023-02-11T07:03:56.129Z,0.60
2023-02-11T07:06:27.841Z,0.50
2023-02-11T07:08:57.326Z,0.30
2023-02-11T07:11:26.989Z,0.57
2023-02-11T07:13:58.318Z,0.80
2023-02-11T07:16:26.624Z,0.40
2023-02-11T07:18:54.976Z,0.88
2023-02-11T07:21:24.889Z,0.73
2023-02-11T07:23:53.260Z,0.40
2023-02-11T07:26:24.066Z,0.38
2023-02-11T07:28:53.082Z,0.77
2023-02-11T07:31:25.076Z,0.70
2023-02-11T07:33:55.049Z,0.32
2023-02-11T07:36:23.829Z,0.60
2023-02-11T07:38:52.073Z,0.43
2023-02-11T07:41:22.841Z,0.70
2023-02-11T07:43:51.734Z,0.60
2023-02-11T07:46:24.145Z,0.90
2023-02-11T07:48:52.886Z,0.38
2023-02-11T07:51:22.787Z,0.47
2023-02-11T07:53:52.241Z,0.80
2023-02-11T07:56:21.808Z,0.80
2023-02-11T07:58:50.701Z,0.93
2023-02-11T08:01:22.199Z,0.70
2023-02-11T08:03:52.670Z,0.63
2023-02-11T08:06:24.803Z,0.47
2023-02-11T08:08:53.652Z,0.63
2023-02-11T08:11:25.097Z,0.50
2023-02-11T08:13:54.286Z,0.40
2023-02-11T08:16:24.642Z,0.50
2023-02-11T08:18:57.837Z,0.50
2023-02-11T08:21:27.201Z,0.50
2023-02-11T08:23:57.302Z,0.85
2023-02-11T08:26:29.038Z,0.80
2023-02-11T08:28:58.982Z,0.22
2023-02-11T08:31:29.996Z,0.32
2023-02-11T08:33:59.881Z,0.68
2023-02-11T08:36:32.191Z,0.40
2023-02-11T08:39:17.505Z,0.40
2023-02-11T08:41:49.349Z,0.40
2023-02-11T08:44:19.155Z,0.40
2023-02-11T08:46:48.960Z,0.85
2023-02-11T08:49:18.892Z,0.50
2023-02-11T08:51:48.281Z,0.38
2023-02-11T08:54:18.343Z,0.25
2023-02-11T08:56:47.396Z,0.63
2023-02-11T08:59:17.820Z,0.32
2023-02-11T09:01:47.497Z,0.38
2023-02-11T09:04:16.509Z,0.47
2023-02-11T09:06:46.542Z,0.52
2023-02-11T09:09:16.872Z,0.73
2023-02-11T09:11:48.430Z,0.43
2023-02-11T09:14:21.842Z,0.55
2023-02-11T09:16:51.831Z,0.45
2023-02-11T09:19:20.494Z,0.50
2023-02-11T09:21:51.802Z,0.30
2023-02-11T09:24:21.711Z,0.40
2023-02-11T09:26:50.636Z,0.43
2023-02-11T09:29:18.911Z,0.40
2023-02-11T09:31:47.186Z,0.32
2023-02-11T09:34:15.968Z,0.65
2023-02-11T09:36:44.150Z,0.52
2023-02-11T09:39:18.287Z,0.70
2023-02-11T09:42:23.860Z,0.30
2023-02-11T09:44:52.379Z,0.80
2023-02-11T09:47:29.265Z,0.65
2023-02-11T09:50:02.473Z,0.35
2023-02-11T09:52:37.972Z,0.40
2023-02-11T09:55:18.615Z,0.30
2023-02-11T09:57:46.815Z,0.50
2023-02-11T10:00:21.124Z,0.38
2023-02-11T10:03:04.909Z,0.47
2023-02-11T10:05:49.956Z,0.45
2023-02-11T10:08:27.269Z,0.50
2023-02-11T10:11:02.226Z,0.47
2023-02-11T10:13:42.777Z,0.50
2023-02-11T10:16:29.376Z,0.80
2023-02-11T10:19:13.935Z,0.32
2023-02-11T10:21:52.931Z,0.43
2023-02-11T10:24:21.809Z,0.50
2023-02-11T10:26:53.497Z,0.43
2023-02-11T10:29:34.026Z,0.30
2023-02-11T10:32:05.528Z,0.20
2023-02-11T10:34:33.766Z,0.30
2023-02-11T10:37:01.948Z,0.60
2023-02-11T10:39:30.364Z,0.35
2023-02-11T10:42:04.074Z,0.40
2023-02-11T10:44:34.994Z,0.30
2023-02-11T10:47:11.726Z,0.40
2023-02-11T10:49:41.744Z,0.52
2023-02-11T10:52:20.550Z,0.38
2023-02-11T10:55:15.637Z,0.35
2023-02-11T10:57:53.682Z,0.30
2023-02-11T11:00:32.468Z,0.30
2023-02-11T11:03:02.977Z,0.63
2023-02-11T11:05:34.179Z,0.38
2023-02-11T11:08:05.724Z,0.30
2023-02-11T11:10:43.401Z,0.60
2023-02-11T11:13:32.967Z,0.57
2023-02-11T11:16:21.710Z,0.32
2023-02-11T11:18:51.460Z,0.40
2023-02-11T11:21:23.424Z,0.40
2023-02-11T11:23:56.328Z,0.45
2023-02-11T11:26:26.985Z,1.13
2023-02-11T11:29:00.125Z,0.20
2023-02-11T11:31:33.068Z,0.38
2023-02-11T11:34:03.876Z,0.40
2023-02-11T11:36:37.275Z,0.30
2023-02-11T11:39:20.491Z,0.65
2023-02-11T11:41:54.716Z,0.40
2023-02-11T11:44:29.231Z,0.40
2023-02-11T11:47:21.379Z,0.32
2023-02-11T11:49:57.436Z,0.17
2023-02-11T11:52:39.520Z,0.30
2023-02-11T11:55:18.865Z,0.55
2023-02-11T11:57:47.640Z,0.68
2023-02-11T12:00:20.638Z,0.47
2023-02-11T12:03:27.092Z,0.40
2023-02-11T12:06:08.961Z,0.43
2023-02-11T12:08:46.718Z,0.65
2023-02-11T12:11:24.382Z,0.20
2023-02-11T12:14:07.930Z,0.28
2023-02-11T12:16:50.057Z,0.32
2023-02-11T12:19:44.549Z,0.60
2023-02-11T12:22:14.029Z,0.25
2023-02-11T12:24:57.397Z,0.20
2023-02-11T12:27:42.541Z,0.35
2023-02-11T12:30:23.840Z,0.65
2023-02-11T12:33:00.120Z,0.55
2023-02-11T12:35:38.616Z,0.47
2023-02-11T12:38:23.021Z,0.55
2023-02-11T12:41:01.105Z,0.40
2023-02-11T12:43:36.176Z,0.20
2023-02-11T12:46:29.733Z,0.20
2023-02-11T12:49:12.313Z,0.50
2023-02-11T12:51:56.506Z,0.38
2023-02-11T12:54:31.011Z,0.47
2023-02-11T12:57:04.514Z,0.47
2023-02-11T12:59:42.075Z,0.38
2023-02-11T13:02:20.106Z,0.45
2023-02-11T13:04:55.173Z,0.35
2023-02-11T13:07:29.217Z,0.50
2023-02-11T13:10:03.176Z,0.40
2023-02-11T13:12:51.268Z,0.40
2023-02-11T13:15:19.505Z,0.35
2023-02-11T13:17:57.881Z,0.60
2023-02-11T13:20:40.351Z,0.30
2023-02-11T13:23:20.476Z,0.38
2023-02-11T13:25:55.919Z,0.35
2023-02-11T13:28:34.791Z,0.30
2023-02-11T13:31:07.071Z,0.30
2023-02-11T13:33:37.585Z,0.35
2023-02-11T13:36:26.848Z,0.40
2023-02-11T13:38:59.863Z,0.73
2023-02-11T13:41:33.995Z,0.32
2023-02-11T13:44:06.414Z,0.57
2023-02-11T13:46:58.205Z,0.40
2023-02-11T13:49:32.643Z,0.45
2023-02-11T13:52:04.771Z,0.60
2023-02-11T13:54:37.520Z,0.50
2023-02-11T13:57:43.150Z,0.28
2023-02-11T14:00:48.489Z,0.43
2023-02-11T14:03:43.466Z,0.30
2023-02-11T14:06:35.084Z,0.30
2023-02-11T14:09:26.189Z,0.40
2023-02-11T14:11:57.296Z,0.20
2023-02-11T14:14:27.738Z,0.30
2023-02-11T14:17:31.557Z,0.60
2023-02-11T14:20:00.818Z,0.60
2023-02-11T14:22:31.775Z,0.55
2023-02-11T14:25:04.376Z,0.40
2023-02-11T14:27:41.784Z,0.30
2023-02-11T14:30:21.888Z,0.50
2023-02-11T14:33:07.096Z,0.40
2023-02-11T14:35:42.155Z,0.38
2023-02-11T14:38:21.424Z,0.40
2023-02-11T14:40:58.126Z,0.52
2023-02-11T14:43:31.933Z,0.30
2023-02-11T14:48:32.562Z,0.13
2023-02-11T14:51:04.473Z,0.50
2023-02-11T14:53:34.334Z,0.77
2023-02-11T14:56:03.826Z,0.50
2023-02-11T14:58:34.439Z,0.40
2023-02-11T15:01:06.534Z,0.60
2023-02-11T15:03:37.862Z,0.30
2023-02-11T15:06:14.815Z,0.20
2023-02-11T15:08:46.658Z,0.57
2023-02-11T15:11:19.302Z,0.60
2023-02-11T15:13:49.786Z,0.17
2023-02-11T15:16:21.451Z,0.45
2023-02-11T15:18:53.036Z,0.30
2023-02-11T15:21:23.336Z,0.70
2023-02-11T15:24:00.477Z,0.50
2023-02-11T15:26:31.189Z,0.77
2023-02-11T15:28:59.823Z,0.40
2023-02-11T15:31:30.737Z,0.28
2023-02-11T15:34:08.930Z,0.70
2023-02-11T15:36:37.887Z,0.40
2023-02-11T15:39:19.239Z,0.50
2023-02-11T15:41:48.807Z,0.47
2023-02-11T15:44:29.546Z,0.40
2023-02-11T15:46:58.220Z,0.90
2023-02-11T15:49:26.971Z,0.65
2023-02-11T15:51:58.114Z,0.63
2023-02-11T15:54:32.109Z,0.70
2023-02-11T15:57:05.625Z,0.65
2023-02-11T15:59:38.321Z,0.60
2023-02-11T16:02:11.233Z,0.60
2023-02-11T16:04:39.660Z,0.55
2023-02-11T16:07:07.880Z,0.68
2023-02-11T16:09:37.753Z,0.50
2023-02-11T16:12:27.070Z,0.57
2023-02-11T16:14:56.565Z,0.63
2023-02-11T16:17:27.647Z,0.60
2023-02-11T16:19:56.306Z,0.60
2023-02-11T16:22:27.506Z,0.70
2023-02-11T16:24:58.408Z,0.63
2023-02-11T16:27:30.745Z,0.80
2023-02-11T16:29:59.798Z,0.90
2023-02-11T16:32:30.111Z,1.02
2023-02-11T16:35:00.968Z,1.63
2023-02-11T16:37:29.232Z,1.13
2023-02-11T16:39:58.263Z,1.10
2023-02-11T16:42:26.500Z,0.75
2023-02-11T16:44:55.973Z,1.35
2023-02-11T16:47:25.999Z,1.60
2023-02-11T16:49:54.869Z,1.75
2023-02-11T16:52:23.563Z,1.33
2023-02-11T16:54:52.018Z,2.00
2023-02-11T16:57:22.196Z,1.80
2023-02-11T16:59:50.997Z,1.20
2023-02-11T17:02:24.328Z,1.50
2023-02-11T17:04:54.708Z,1.92
2023-02-11T17:07:23.661Z,5.13
2023-02-11T17:09:53.164Z,2.08
2023-02-11T17:12:21.561Z,1.48
2023-02-11T17:14:50.020Z,1.67
2023-02-11T17:17:18.911Z,1.48
2023-02-11T17:19:48.830Z,1.48
2023-02-11T17:22:17.200Z,1.75
2023-02-11T17:24:45.588Z,1.25
2023-02-11T17:27:15.341Z,1.60
2023-02-11T17:29:43.770Z,1.40
2023-02-11T17:32:12.208Z,1.80
2023-02-11T17:34:40.606Z,1.60
2023-02-11T17:37:10.230Z,1.50
2023-02-11T17:39:40.102Z,1.75
2023-02-11T17:42:08.898Z,2.38
2023-02-11T17:44:37.447Z,3.20
2023-02-11T17:47:05.799Z,1.80
2023-02-11T17:49:34.285Z,2.75
2023-02-11T17:52:02.483Z,2.08
2023-02-11T17:54:32.174Z,1.65
2023-02-11T17:57:00.654Z,1.50
2023-02-11T17:59:35.374Z,1.00
2023-02-11T18:02:04.265Z,1.27
2023-02-11T18:04:33.102Z,1.10
2023-02-11T18:07:01.521Z,0.98
2023-02-11T18:09:31.070Z,1.30
2023-02-11T18:11:59.293Z,0.75
2023-02-11T18:14:27.443Z,1.02
2023-02-11T18:16:55.798Z,1.50
2023-02-11T18:19:23.923Z,1.58
2023-02-11T18:21:52.062Z,1.50
2023-02-11T18:24:20.209Z,1.20
2023-02-11T18:26:49.803Z,1.60
2023-02-11T18:29:17.962Z,1.52
2023-02-11T18:31:46.372Z,1.10
2023-02-11T18:34:15.879Z,1.20
2023-02-11T18:36:44.490Z,1.30
2023-02-11T18:39:12.545Z,1.10
2023-02-11T18:41:42.306Z,1.20
2023-02-11T18:44:12.216Z,1.25
2023-02-11T18:46:40.542Z,1.00
2023-02-11T18:49:09.903Z,0.80
2023-02-11T18:51:38.086Z,0.93
2023-02-11T18:54:06.379Z,1.25
2023-02-11T18:56:34.660Z,1.02
2023-02-11T18:59:03.238Z,0.95
2023-02-11T19:01:34.368Z,0.70
2023-02-11T19:04:04.738Z,0.95
2023-02-11T19:06:36.352Z,1.30
2023-02-11T19:09:07.745Z,1.02
2023-02-11T19:11:53.544Z,1.55
2023-02-11T19:14:24.066Z,2.80
2023-02-11T19:16:55.998Z,2.75
2023-02-11T19:19:26.930Z,2.95
2023-02-11T19:21:56.242Z,2.20
2023-02-11T19:24:25.302Z,1.90
2023-02-11T19:26:54.793Z,1.98
2023-02-11T19:29:23.005Z,1.25
2023-02-11T19:31:51.279Z,1.52
2023-02-11T19:34:21.715Z,1.17
2023-02-11T19:36:50.753Z,1.38
2023-02-11T19:39:19.854Z,1.52
2023-02-11T19:41:48.308Z,1.30
2023-02-11T19:44:16.718Z,0.85
2023-02-11T19:46:46.112Z,1.85
2023-02-11T19:49:16.534Z,3.28
2023-02-11T19:51:46.053Z,2.67
2023-02-11T19:54:14.760Z,1.52
2023-02-11T19:56:45.204Z,0.98
2023-02-11T19:59:13.374Z,1.25
2023-02-11T20:01:42.222Z,1.20
2023-02-11T20:04:10.804Z,0.70
2023-02-11T20:06:38.925Z,0.57
2023-02-11T20:09:12.368Z,0.70
2023-02-11T20:11:41.360Z,2.13
2023-02-11T20:14:10.596Z,3.30
2023-02-11T20:16:48.015Z,2.63
2023-02-11T20:19:18.774Z,2.10
2023-02-11T20:21:48.476Z,2.33
2023-02-11T20:24:19.497Z,2.50
2023-02-11T20:26:48.712Z,3.80
2023-02-11T20:29:18.051Z,3.00
2023-02-11T20:31:46.685Z,3.15
2023-02-11T20:34:17.485Z,2.65
2023-02-11T20:36:51.815Z,2.30
2023-02-11T20:39:22.865Z,3.45
2023-02-11T20:41:52.396Z,3.20
2023-02-11T20:44:22.587Z,3.95
2023-02-11T20:46:51.601Z,2.55
2023-02-11T20:49:22.614Z,2.42
2023-02-11T20:51:51.317Z,2.13
2023-02-11T20:54:22.083Z,2.80
2023-02-11T20:56:51.860Z,2.67
2023-02-11T20:59:20.994Z,3.00
2023-02-11T21:01:53.568Z,2.83
2023-02-11T21:04:23.572Z,3.00
2023-02-11T21:06:54.401Z,2.75
2023-02-11T21:09:26.700Z,2.20
2023-02-11T21:11:55.571Z,1.88
2023-02-11T21:14:25.197Z,1.50
2023-02-11T21:16:53.825Z,1.48
2023-02-11T21:19:21.969Z,1.52
2023-02-11T21:21:50.459Z,1.40
2023-02-11T21:24:18.714Z,1.00
2023-02-11T21:26:48.234Z,0.98
2023-02-11T21:29:16.558Z,1.23
2023-02-11T21:31:44.992Z,1.58
2023-02-11T21:34:13.165Z,0.95
2023-02-11T21:36:41.347Z,1.30
2023-02-11T21:39:09.773Z,1.42
2023-02-11T21:41:38.024Z,1.00
2023-02-11T21:44:07.518Z,1.13
2023-02-11T21:46:35.725Z,1.10
2023-02-11T21:49:04.228Z,1.10
2023-02-11T21:51:32.410Z,1.17
2023-02-11T21:54:02.270Z,0.90
2023-02-11T21:56:31.895Z,1.05
2023-02-11T21:59:01.003Z,1.55
2023-02-11T22:01:32.143Z,1.48
2023-02-11T22:04:00.720Z,1.08
2023-02-11T22:06:31.767Z,1.00
2023-02-11T22:09:02.888Z,1.33
2023-02-11T22:11:31.040Z,2.72
2023-02-11T22:14:00.123Z,2.33
2023-02-11T22:16:30.870Z,1.90
2023-02-11T22:18:59.687Z,2.53
2023-02-11T22:21:28.139Z,2.38
2023-02-11T22:23:56.943Z,1.90
2023-02-11T22:26:26.889Z,1.63
2023-02-11T22:28:55.963Z,1.83
2023-02-11T22:31:26.636Z,2.15
2023-02-11T22:33:56.623Z,1.35
2023-02-11T22:36:26.561Z,0.95
2023-02-11T22:38:55.145Z,1.42
2023-02-11T22:41:23.952Z,1.23
2023-02-11T22:43:52.969Z,1.25
2023-02-11T22:46:21.393Z,0.98
2023-02-11T22:48:50.169Z,1.15
2023-02-11T22:51:22.263Z,0.68
2023-02-11T22:53:51.936Z,0.82
2023-02-11T22:56:20.462Z,1.00
2023-02-11T22:58:49.398Z,0.93
2023-02-11T23:01:18.319Z,1.17
2023-02-11T23:03:46.938Z,1.30
2023-02-11T23:06:15.498Z,1.92
2023-02-11T23:08:45.455Z,2.00
2023-02-11T23:11:17.050Z,1.75
2023-02-11T23:13:46.845Z,1.90
2023-02-11T23:16:18.241Z,1.98
2023-02-11T23:18:48.118Z,1.48
2023-02-11T23:21:18.293Z,1.52
2023-02-11T23:23:49.132Z,1.42
2023-02-11T23:26:19.176Z,1.63
2023-02-11T23:28:48.205Z,1.67
2023-02-11T23:31:20.434Z,1.65
2023-02-11T23:33:48.851Z,0.80
2023-02-11T23:36:18.525Z,1.23
2023-02-11T23:38:48.693Z,0.95
2023-02-11T23:41:17.917Z,1.10
2023-02-11T23:43:49.510Z,0.73
2023-02-11T23:46:18.075Z,0.93
2023-02-11T23:48:46.278Z,0.70
2023-02-11T23:51:14.846Z,0.68
2023-02-11T23:53:45.734Z,0.88
2023-02-11T23:56:18.505Z,1.15
2023-02-11T23:58:49.400Z,0.77
